Cap San Marco — CQES — position and weather

sailwx.info

Track history (hours):
 
Tides and Currents Weather Stations Pressure Air Temp Water Temp Dewpoint Dewpoint Depression Visibility Wind Speed Wind Dir Waves Ship Positions

Cap San Marco

Last reported at 2017-Dec-11 00:00 UTC. Time now 2017-Dec-12 12:22 UTC.
Position N 11°54' W 023°30'.

Length 333 m; draft 12.7 m.

Type: Ship (hazmat cat A). MMSI: 255805696.

Wind from 040 at 17 knots

Barometer 1012.7 mb
Air temperature 25.6 ° C
Visibility: greater than 5.4 NM
Dewpoint 19.0 ° C
Water temperature 28.0 ° C

Date/timePositionNaut miles runAvg speedWind from/ knotsBaromVisibWave heightAir tempDewpointWater temp
2017-Dec-11 00:00N 11°54' W 023°30'76115.9 040 / 171012.7 5.4 25.619.028.0
2017-Dec-09 00:00N 00°24' W 028°54'18815.7 130 / 81012.710.8 26.122.228.0
2017-Dec-08 12:00S 02°24' W 030°18'38416.0 110 / 121012.110.8 28.022.728.0
2017-Dec-07 12:00S 08°12' W 033°00'38015.8 080 / 81012.110.8 27.320.928.0
2017-Dec-06 12:00S 13°54' W 035°48'19216.0 030 / 121012.910.8 27.120.428.0
2017-Dec-06 00:00S 16°48' W 037°12'37215.5 010 / 141012.610.8 26.321.728.0
2017-Dec-05 00:00S 22°06' W 040°36'30415.0 080 / 61010.9 5.4 25.222.725.0
2017-Dec-04 03:42S 24°00' W 045°42'315.3
2017-Dec-04 03:30S 24°01' W 045°46'815.2
2017-Dec-04 03:00S 24°02' W 045°54'815.3
2017-Dec-04 02:30S 24°03' W 046°02'815.2
2017-Dec-04 02:00S 24°04' W 046°10'714.2
2017-Dec-04 01:30S 24°04' W 046°18'4 8.1
2017-Dec-04 01:00S 24°00' W 046°20'3 6.5
2017-Dec-04 00:31S 23°59' W 046°17'1 1.2
2017-Dec-04 00:00S 23°58' W 046°18'0 0.0
2017-Dec-03 23:29S 23°58' W 046°18'0 0.0
2017-Dec-03 22:59S 23°58' W 046°18'0 0.0
2017-Dec-03 22:29S 23°58' W 046°18'0 0.0
2017-Dec-03 21:59S 23°58' W 046°18'0 0.0
2017-Dec-03 21:29S 23°58' W 046°18'0 0.0
2017-Dec-03 20:53S 23°58' W 046°17'0 0.0
2017-Dec-03 20:29S 23°58' W 046°17'0 0.0
2017-Dec-03 19:59S 23°58' W 046°18'0 0.0
2017-Dec-03 19:23S 23°58' W 046°18'0 0.0
2017-Dec-03 18:59S 23°58' W 046°18'0 0.0
2017-Dec-03 18:29S 23°58' W 046°17'0 0.0
2017-Dec-03 17:47S 23°58' W 046°18'0 0.0
2017-Dec-03 17:29S 23°58' W 046°18'0 0.0
2017-Dec-03 16:47S 23°58' W 046°18'0 0.0
2017-Dec-03 16:29S 23°58' W 046°18'0 0.0
2017-Dec-03 15:59S 23°58' W 046°18'0 0.0
2017-Dec-03 15:29S 23°58' W 046°18'0 0.0
2017-Dec-03 14:59S 23°58' W 046°18'0 0.0
2017-Dec-03 14:26S 23°58' W 046°18'0 0.0
2017-Dec-03 13:59S 23°58' W 046°18'0 0.0
2017-Dec-03 13:29S 23°58' W 046°18'0 0.0
2017-Dec-03 12:59S 23°58' W 046°18'0 0.0
2017-Dec-03 12:29S 23°58' W 046°18'0 0.0
2017-Dec-03 11:59S 23°58' W 046°18'0 0.0
2017-Dec-03 11:29S 23°58' W 046°18'0 0.0
2017-Dec-03 10:59S 23°58' W 046°18'0 0.0
2017-Dec-03 10:29S 23°58' W 046°18'0 0.0
2017-Dec-03 09:59S 23°58' W 046°18'0 0.0
2017-Dec-03 09:29S 23°58' W 046°18'0 0.0
2017-Dec-03 08:59S 23°58' W 046°18'0 0.0
2017-Dec-03 08:26S 23°58' W 046°17'0 0.0
2017-Dec-03 07:59S 23°58' W 046°18'0 0.0
2017-Dec-03 07:29S 23°58' W 046°18'0 0.0
2017-Dec-03 06:59S 23°58' W 046°18'0 0.0
2017-Dec-03 06:29S 23°58' W 046°18'0 0.0
2017-Dec-03 05:53S 23°58' W 046°18'0 0.0
2017-Dec-03 05:29S 23°58' W 046°18'0 0.0
2017-Dec-03 04:59S 23°58' W 046°17'0 0.0
2017-Dec-03 04:23S 23°58' W 046°18'0 0.0
2017-Dec-03 03:59S 23°58' W 046°18'0 0.0
2017-Dec-03 03:29S 23°58' W 046°18'0 0.0
2017-Dec-03 02:59S 23°58' W 046°18'0 0.0
2017-Dec-03 02:23S 23°58' W 046°18'0 0.0
2017-Dec-03 01:59S 23°58' W 046°18'0 0.0
2017-Dec-03 01:29S 23°58' W 046°18'0 0.0
2017-Dec-03 00:56S 23°58' W 046°18'0 0.0
2017-Dec-03 00:26S 23°58' W 046°18'0 0.0
2017-Dec-02 23:59S 23°58' W 046°18'0 0.0
2017-Dec-02 23:29S 23°58' W 046°18'0 0.0
2017-Dec-02 23:00S 23°58' W 046°18'0 0.6
2017-Dec-02 22:31S 23°58' W 046°18'3 5.8
2017-Dec-02 22:00S 24°00' W 046°20'5 9.3
2017-Dec-02 21:30S 24°04' W 046°22'4 8.6
2017-Dec-02 21:00S 24°09' W 046°22'4 8.5
2017-Dec-02 20:30S 24°12' W 046°19'1 1.0
2017-Dec-02 20:00S 24°11' W 046°19'0 0.0
2017-Dec-02 19:30S 24°11' W 046°19'0 0.0
2017-Dec-02 18:57S 24°11' W 046°19'0 0.0
2017-Dec-02 18:30S 24°11' W 046°19'0 0.0
2017-Dec-02 17:57S 24°11' W 046°19'0 0.0
2017-Dec-02 17:30S 24°11' W 046°19'0 0.0
2017-Dec-02 16:54S 24°11' W 046°19'0 0.0
2017-Dec-02 16:30S 24°11' W 046°19'0 0.0
2017-Dec-02 15:57S 24°11' W 046°19'0 0.0
2017-Dec-02 15:30S 24°11' W 046°19'0 0.0
2017-Dec-02 14:57S 24°11' W 046°19'0 0.0
2017-Dec-02 14:27S 24°11' W 046°19'0 0.0
2017-Dec-02 13:57S 24°11' W 046°19'0 0.0
2017-Dec-02 13:30S 24°11' W 046°19'0 0.0
2017-Dec-02 13:00S 24°11' W 046°19'0 0.0
2017-Dec-02 12:27S 24°11' W 046°19'0 0.0
2017-Dec-02 11:57S 24°11' W 046°19'0 0.0
2017-Dec-02 11:30S 24°11' W 046°19'0 0.1
2017-Dec-02 11:00S 24°11' W 046°19'0 0.0
2017-Dec-02 10:30S 24°11' W 046°19'0 0.0
2017-Dec-02 10:00S 24°11' W 046°19'0 0.0
2017-Dec-02 09:21S 24°11' W 046°19'0 0.1
2017-Dec-02 08:57S 24°11' W 046°19'0 0.0
2017-Dec-02 08:27S 24°11' W 046°19'0 0.0
2017-Dec-02 07:57S 24°11' W 046°19'0 0.1
2017-Dec-02 07:21S 24°11' W 046°19'0 0.0
2017-Dec-02 07:00S 24°11' W 046°19'0 0.0
2017-Dec-02 06:30S 24°11' W 046°19'0 0.0
2017-Dec-02 06:00S 24°11' W 046°19'0 0.0
2017-Dec-02 05:30S 24°11' W 046°19'0 0.0
2017-Dec-02 05:00S 24°11' W 046°19'0 0.0
2017-Dec-02 04:30S 24°11' W 046°19'0 0.0
2017-Dec-02 04:00S 24°11' W 046°19'0 0.0
2017-Dec-02 03:30S 24°11' W 046°19'0 0.0
2017-Dec-02 03:00S 24°11' W 046°19'0 0.0
2017-Dec-02 02:30S 24°11' W 046°19'0 0.0
2017-Dec-02 02:00S 24°11' W 046°19'0 0.0
2017-Dec-02 01:24S 24°11' W 046°19'0 0.0
2017-Dec-02 00:57S 24°11' W 046°19'0 0.0
2017-Dec-02 00:27S 24°11' W 046°19'0 0.0
2017-Dec-01 23:54S 24°11' W 046°19'0 0.0
2017-Dec-01 23:27S 24°11' W 046°19'0 0.0
2017-Dec-01 23:00S 24°11' W 046°19'0 0.0
2017-Dec-01 22:27S 24°11' W 046°19'0 0.0
2017-Dec-01 21:57S 24°11' W 046°19'0 0.0
2017-Dec-01 21:30S 24°11' W 046°19'0 0.0
2017-Dec-01 20:57S 24°11' W 046°19'0 0.0
2017-Dec-01 20:30S 24°11' W 046°19'0 0.0
2017-Dec-01 19:57S 24°11' W 046°19'0 0.0
2017-Dec-01 19:30S 24°11' W 046°19'0 0.0
2017-Dec-01 19:00S 24°11' W 046°19'0 0.0
2017-Dec-01 18:27S 24°11' W 046°19'0 0.0
2017-Dec-01 17:57S 24°11' W 046°19'0 0.0
2017-Dec-01 17:27S 24°11' W 046°19'0 0.0
2017-Dec-01 17:00S 24°11' W 046°19'0 0.0
2017-Dec-01 16:30S 24°11' W 046°19'0 0.0
2017-Dec-01 15:57S 24°11' W 046°19'0 0.0
2017-Dec-01 15:24S 24°11' W 046°19'0 0.0
2017-Dec-01 15:00S 24°11' W 046°19'0 0.0
2017-Dec-01 14:30S 24°11' W 046°19'0 0.0
2017-Dec-01 13:51S 24°11' W 046°19'0 0.0
2017-Dec-01 13:27S 24°11' W 046°19'0 0.0
2017-Dec-01 12:59S 24°11' W 046°19'0 0.0
2017-Dec-01 12:30S 24°11' W 046°19'0 0.0
2017-Dec-01 12:00S 24°11' W 046°19'0 0.0
2017-Dec-01 11:30S 24°11' W 046°19'0 0.0
2017-Dec-01 11:00S 24°11' W 046°19'0 0.0
2017-Dec-01 10:27S 24°11' W 046°19'1 2.6
2017-Dec-01 10:00S 24°11' W 046°20'5 9.7
2017-Dec-01 09:30S 24°15' W 046°24'713.1
2017-Dec-01 09:00S 24°21' W 046°26'613.1
2017-Dec-01 08:30S 24°27' W 046°27'612.8
2017-Dec-01 08:00S 24°32' W 046°33'612.8
2017-Dec-01 07:30S 24°36' W 046°38'612.8
2017-Dec-01 07:00S 24°40' W 046°44'  
Track history (hours):
 
Tides and Currents Weather Stations Pressure Air Temp Water Temp Dewpoint Dewpoint Depression Visibility Wind Speed Wind Dir Waves Ship Positions

Cap San Marco

Last reported at 2017-Dec-11 00:00 UTC. Time now 2017-Dec-12 12:22 UTC.
Position N 11°54' W 023°30'.

Length 333 m; draft 12.7 m.

Type: Ship (hazmat cat A). MMSI: 255805696.

Wind from 040 at 17 knots

Barometer 1012.7 mb
Air temperature 25.6 ° C
Visibility: greater than 5.4 NM
Dewpoint 19.0 ° C
Water temperature 28.0 ° C

Date/timePositionNaut miles runAvg speedWind from/ knotsBaromVisibWave heightAir tempDewpointWater temp
2017-Dec-11 00:00N 11°54' W 023°30'76115.9 040 / 171012.7 5.4 25.619.028.0
2017-Dec-09 00:00N 00°24' W 028°54'18815.7 130 / 81012.710.8 26.122.228.0
2017-Dec-08 12:00S 02°24' W 030°18'38416.0 110 / 121012.110.8 28.022.728.0
2017-Dec-07 12:00S 08°12' W 033°00'38015.8 080 / 81012.110.8 27.320.928.0
2017-Dec-06 12:00S 13°54' W 035°48'19216.0 030 / 121012.910.8 27.120.428.0
2017-Dec-06 00:00S 16°48' W 037°12'37215.5 010 / 141012.610.8 26.321.728.0
2017-Dec-05 00:00S 22°06' W 040°36'30415.0 080 / 61010.9 5.4 25.222.725.0
2017-Dec-04 03:42S 24°00' W 045°42'315.3
2017-Dec-04 03:30S 24°01' W 045°46'815.2
2017-Dec-04 03:00S 24°02' W 045°54'815.3
2017-Dec-04 02:30S 24°03' W 046°02'815.2
2017-Dec-04 02:00S 24°04' W 046°10'714.2
2017-Dec-04 01:30S 24°04' W 046°18'4 8.1
2017-Dec-04 01:00S 24°00' W 046°20'3 6.5
2017-Dec-04 00:31S 23°59' W 046°17'1 1.2
2017-Dec-04 00:00S 23°58' W 046°18'0 0.0
2017-Dec-03 23:29S 23°58' W 046°18'0 0.0
2017-Dec-03 22:59S 23°58' W 046°18'0 0.0
2017-Dec-03 22:29S 23°58' W 046°18'0 0.0
2017-Dec-03 21:59S 23°58' W 046°18'0 0.0
2017-Dec-03 21:29S 23°58' W 046°18'0 0.0
2017-Dec-03 20:53S 23°58' W 046°17'0 0.0
2017-Dec-03 20:29S 23°58' W 046°17'0 0.0
2017-Dec-03 19:59S 23°58' W 046°18'0 0.0
2017-Dec-03 19:23S 23°58' W 046°18'0 0.0
2017-Dec-03 18:59S 23°58' W 046°18'0 0.0
2017-Dec-03 18:29S 23°58' W 046°17'0 0.0
2017-Dec-03 17:47S 23°58' W 046°18'0 0.0
2017-Dec-03 17:29S 23°58' W 046°18'0 0.0
2017-Dec-03 16:47S 23°58' W 046°18'0 0.0
2017-Dec-03 16:29S 23°58' W 046°18'0 0.0
2017-Dec-03 15:59S 23°58' W 046°18'0 0.0
2017-Dec-03 15:29S 23°58' W 046°18'0 0.0
2017-Dec-03 14:59S 23°58' W 046°18'0 0.0
2017-Dec-03 14:26S 23°58' W 046°18'0 0.0
2017-Dec-03 13:59S 23°58' W 046°18'0 0.0
2017-Dec-03 13:29S 23°58' W 046°18'0 0.0
2017-Dec-03 12:59S 23°58' W 046°18'0 0.0
2017-Dec-03 12:29S 23°58' W 046°18'0 0.0
2017-Dec-03 11:59S 23°58' W 046°18'0 0.0
2017-Dec-03 11:29S 23°58' W 046°18'0 0.0
2017-Dec-03 10:59S 23°58' W 046°18'0 0.0
2017-Dec-03 10:29S 23°58' W 046°18'0 0.0
2017-Dec-03 09:59S 23°58' W 046°18'0 0.0
2017-Dec-03 09:29S 23°58' W 046°18'0 0.0
2017-Dec-03 08:59S 23°58' W 046°18'0 0.0
2017-Dec-03 08:26S 23°58' W 046°17'0 0.0
2017-Dec-03 07:59S 23°58' W 046°18'0 0.0
2017-Dec-03 07:29S 23°58' W 046°18'0 0.0
2017-Dec-03 06:59S 23°58' W 046°18'0 0.0
2017-Dec-03 06:29S 23°58' W 046°18'0 0.0
2017-Dec-03 05:53S 23°58' W 046°18'0 0.0
2017-Dec-03 05:29S 23°58' W 046°18'0 0.0
2017-Dec-03 04:59S 23°58' W 046°17'0 0.0
2017-Dec-03 04:23S 23°58' W 046°18'0 0.0
2017-Dec-03 03:59S 23°58' W 046°18'0 0.0
2017-Dec-03 03:29S 23°58' W 046°18'0 0.0
2017-Dec-03 02:59S 23°58' W 046°18'0 0.0
2017-Dec-03 02:23S 23°58' W 046°18'0 0.0
2017-Dec-03 01:59S 23°58' W 046°18'0 0.0
2017-Dec-03 01:29S 23°58' W 046°18'0 0.0
2017-Dec-03 00:56S 23°58' W 046°18'0 0.0
2017-Dec-03 00:26S 23°58' W 046°18'0 0.0
2017-Dec-02 23:59S 23°58' W 046°18'0 0.0
2017-Dec-02 23:29S 23°58' W 046°18'0 0.0
2017-Dec-02 23:00S 23°58' W 046°18'0 0.6
2017-Dec-02 22:31S 23°58' W 046°18'3 5.8
2017-Dec-02 22:00S 24°00' W 046°20'5 9.3
2017-Dec-02 21:30S 24°04' W 046°22'4 8.6
2017-Dec-02 21:00S 24°09' W 046°22'4 8.5
2017-Dec-02 20:30S 24°12' W 046°19'1 1.0
2017-Dec-02 20:00S 24°11' W 046°19'0 0.0
2017-Dec-02 19:30S 24°11' W 046°19'0 0.0
2017-Dec-02 18:57S 24°11' W 046°19'0 0.0
2017-Dec-02 18:30S 24°11' W 046°19'0 0.0
2017-Dec-02 17:57S 24°11' W 046°19'0 0.0
2017-Dec-02 17:30S 24°11' W 046°19'0 0.0
2017-Dec-02 16:54S 24°11' W 046°19'0 0.0
2017-Dec-02 16:30S 24°11' W 046°19'0 0.0
2017-Dec-02 15:57S 24°11' W 046°19'0 0.0
2017-Dec-02 15:30S 24°11' W 046°19'0 0.0
2017-Dec-02 14:57S 24°11' W 046°19'0 0.0
2017-Dec-02 14:27S 24°11' W 046°19'0 0.0
2017-Dec-02 13:57S 24°11' W 046°19'0 0.0
2017-Dec-02 13:30S 24°11' W 046°19'0 0.0
2017-Dec-02 13:00S 24°11' W 046°19'0 0.0
2017-Dec-02 12:27S 24°11' W 046°19'0 0.0
2017-Dec-02 11:57S 24°11' W 046°19'0 0.0
2017-Dec-02 11:30S 24°11' W 046°19'0 0.1
2017-Dec-02 11:00S 24°11' W 046°19'0 0.0
2017-Dec-02 10:30S 24°11' W 046°19'0 0.0
2017-Dec-02 10:00S 24°11' W 046°19'0 0.0
2017-Dec-02 09:21S 24°11' W 046°19'0 0.1
2017-Dec-02 08:57S 24°11' W 046°19'0 0.0
2017-Dec-02 08:27S 24°11' W 046°19'0 0.0
2017-Dec-02 07:57S 24°11' W 046°19'0 0.1
2017-Dec-02 07:21S 24°11' W 046°19'0 0.0
2017-Dec-02 07:00S 24°11' W 046°19'0 0.0
2017-Dec-02 06:30S 24°11' W 046°19'0 0.0
2017-Dec-02 06:00S 24°11' W 046°19'0 0.0
2017-Dec-02 05:30S 24°11' W 046°19'0 0.0
2017-Dec-02 05:00S 24°11' W 046°19'0 0.0
2017-Dec-02 04:30S 24°11' W 046°19'0 0.0
2017-Dec-02 04:00S 24°11' W 046°19'0 0.0
2017-Dec-02 03:30S 24°11' W 046°19'0 0.0
2017-Dec-02 03:00S 24°11' W 046°19'0 0.0
2017-Dec-02 02:30S 24°11' W 046°19'0 0.0
2017-Dec-02 02:00S 24°11' W 046°19'0 0.0
2017-Dec-02 01:24S 24°11' W 046°19'0 0.0
2017-Dec-02 00:57S 24°11' W 046°19'0 0.0
2017-Dec-02 00:27S 24°11' W 046°19'0 0.0
2017-Dec-01 23:54S 24°11' W 046°19'0 0.0
2017-Dec-01 23:27S 24°11' W 046°19'0 0.0
2017-Dec-01 23:00S 24°11' W 046°19'0 0.0
2017-Dec-01 22:27S 24°11' W 046°19'0 0.0
2017-Dec-01 21:57S 24°11' W 046°19'0 0.0
2017-Dec-01 21:30S 24°11' W 046°19'0 0.0
2017-Dec-01 20:57S 24°11' W 046°19'0 0.0
2017-Dec-01 20:30S 24°11' W 046°19'0 0.0
2017-Dec-01 19:57S 24°11' W 046°19'0 0.0
2017-Dec-01 19:30S 24°11' W 046°19'0 0.0
2017-Dec-01 19:00S 24°11' W 046°19'0 0.0
2017-Dec-01 18:27S 24°11' W 046°19'0 0.0
2017-Dec-01 17:57S 24°11' W 046°19'0 0.0
2017-Dec-01 17:27S 24°11' W 046°19'0 0.0
2017-Dec-01 17:00S 24°11' W 046°19'0 0.0
2017-Dec-01 16:30S 24°11' W 046°19'0 0.0
2017-Dec-01 15:57S 24°11' W 046°19'0 0.0
2017-Dec-01 15:24S 24°11' W 046°19'0 0.0
2017-Dec-01 15:00S 24°11' W 046°19'0 0.0
2017-Dec-01 14:30S 24°11' W 046°19'0 0.0
2017-Dec-01 13:51S 24°11' W 046°19'0 0.0
2017-Dec-01 13:27S 24°11' W 046°19'0 0.0
2017-Dec-01 12:59S 24°11' W 046°19'0 0.0
2017-Dec-01 12:30S 24°11' W 046°19'0 0.0
2017-Dec-01 12:00S 24°11' W 046°19'0 0.0
2017-Dec-01 11:30S 24°11' W 046°19'0 0.0
2017-Dec-01 11:00S 24°11' W 046°19'0 0.0
2017-Dec-01 10:27S 24°11' W 046°19'1 2.6
2017-Dec-01 10:00S 24°11' W 046°20'5 9.7
2017-Dec-01 09:30S 24°15' W 046°24'713.1
2017-Dec-01 09:00S 24°21' W 046°26'613.1
2017-Dec-01 08:30S 24°27' W 046°27'612.8
2017-Dec-01 08:00S 24°32' W 046°33'612.8
2017-Dec-01 07:30S 24°36' W 046°38'612.8
2017-Dec-01 07:00S 24°40' W 046°44'  

Dump ship's entire track history